Terminal Aerodrome Forecast
Issued by NWS Twin Cities, MN

Home | Current Version | Previous Version | Text Only | Print | Product List | Glossary Off
Versions: 1 2 3 4 5 6 7 8 9 10 11 12 13 14 15 16 17 18 19 20 21 22 23 24 25 26 27 28 29 30 31 32

000
FTUS43 KMPX 151200 CCA
TAFMSP
TAF COR
KMSP 151200Z 1512/1618 30012KT P6SM OVC012
      TEMPO 1512/1514 BKN080
     FM151400 30015G21KT P6SM OVC015
     FM151800 30018G26KT P6SM OVC025
     FM160600 30010KT P6SM SCT040
     FM161200 VRB05KT P6SM FEW200=

USA.gov is the U.S. government's official web portal to all federal, state and local government web resources and services.